createdAt,value
2023-04-10T00:01:16.134Z,99.90
2023-04-10T00:03:46.614Z,99.90
2023-04-10T00:06:15.000Z,99.90
2023-04-10T00:08:43.072Z,99.90
2023-04-10T00:11:11.220Z,99.90
2023-04-10T00:13:39.522Z,99.90
2023-04-10T00:16:08.472Z,99.90
2023-04-10T00:18:40.440Z,99.90
2023-04-10T00:21:08.678Z,99.90
2023-04-10T00:23:36.735Z,99.90
2023-04-10T00:26:05.150Z,99.90
2023-04-10T00:28:33.212Z,99.90
2023-04-10T00:31:01.412Z,99.90
2023-04-10T00:33:29.520Z,99.90
2023-04-10T00:35:59.106Z,99.90
2023-04-10T00:38:27.298Z,99.90
2023-04-10T00:40:57.717Z,99.90
2023-04-10T00:43:25.840Z,99.90
2023-04-10T00:45:53.952Z,99.90
2023-04-10T00:48:22.053Z,99.90
2023-04-10T00:50:50.168Z,99.90
2023-04-10T00:53:19.659Z,99.90
2023-04-10T00:55:48.407Z,99.90
2023-04-10T00:58:16.518Z,99.90
2023-04-10T01:00:45.414Z,99.90
2023-04-10T01:03:16.251Z,99.90
2023-04-10T01:05:52.857Z,99.90
2023-04-10T01:08:34.213Z,99.90
2023-04-10T01:11:08.117Z,99.90
2023-04-10T01:13:40.766Z,99.90
2023-04-10T01:16:17.219Z,99.90
2023-04-10T01:18:50.264Z,99.90
2023-04-10T01:21:19.007Z,99.90
2023-04-10T01:24:19.722Z,99.90
2023-04-10T01:27:04.020Z,99.90
2023-04-10T01:29:35.507Z,99.90
2023-04-10T01:32:12.553Z,99.90
2023-04-10T01:34:45.020Z,99.90
2023-04-10T01:37:17.720Z,99.90
2023-04-10T01:39:51.102Z,99.90
2023-04-10T01:42:21.192Z,99.90
2023-04-10T01:44:52.917Z,99.90
2023-04-10T01:47:21.638Z,99.90
2023-04-10T01:49:52.450Z,99.90
2023-04-10T01:52:21.917Z,99.90
2023-04-10T01:54:56.493Z,99.90
2023-04-10T01:57:33.419Z,99.90
2023-04-10T02:00:05.478Z,99.90
2023-04-10T02:02:43.936Z,99.90
2023-04-10T02:05:12.577Z,99.90
2023-04-10T02:07:46.208Z,99.90
2023-04-10T02:10:21.434Z,99.90
2023-04-10T02:12:56.517Z,99.90
2023-04-10T02:15:29.091Z,99.90
2023-04-10T02:18:00.831Z,99.90
2023-04-10T02:20:29.187Z,99.90
2023-04-10T02:22:59.507Z,99.90
2023-04-10T02:25:27.678Z,99.90
2023-04-10T02:27:55.896Z,99.90
2023-04-10T02:30:25.774Z,99.90
2023-04-10T02:32:53.973Z,99.90
2023-04-10T02:35:22.214Z,99.90
2023-04-10T02:37:53.332Z,99.90
2023-04-10T02:40:24.614Z,99.90
2023-04-10T02:43:12.321Z,99.90
2023-04-10T02:45:42.882Z,99.90
2023-04-10T02:48:14.578Z,99.90
2023-04-10T02:50:48.845Z,99.90
2023-04-10T02:53:17.711Z,99.90
2023-04-10T02:55:45.844Z,99.90
2023-04-10T02:58:15.271Z,99.90
2023-04-10T03:00:49.718Z,99.90
2023-04-10T03:03:24.102Z,99.90
2023-04-10T03:05:55.726Z,99.90
2023-04-10T03:08:30.338Z,99.90
2023-04-10T03:10:58.440Z,99.90
2023-04-10T03:13:26.557Z,99.90
2023-04-10T03:15:58.252Z,99.90
2023-04-10T03:18:26.630Z,99.90
2023-04-10T03:20:56.470Z,99.90
2023-04-10T03:23:24.648Z,99.90
2023-04-10T03:25:54.784Z,99.90
2023-04-10T03:28:26.141Z,99.90
2023-04-10T03:30:54.376Z,99.90
2023-04-10T03:33:26.316Z,99.90
2023-04-10T03:35:54.485Z,99.90
2023-04-10T03:38:22.668Z,99.90
2023-04-10T03:40:51.040Z,99.90
2023-04-10T03:43:23.010Z,99.90
2023-04-10T03:45:51.150Z,99.90
2023-04-10T03:48:19.316Z,99.90
2023-04-10T03:50:49.840Z,99.90
2023-04-10T03:53:20.528Z,99.90
2023-04-10T03:55:48.652Z,99.90
2023-04-10T03:58:17.272Z,99.90
2023-04-10T04:00:46.398Z,99.90
2023-04-10T04:03:23.703Z,99.90
2023-04-10T04:06:16.303Z,99.90
2023-04-10T04:08:58.935Z,99.90
2023-04-10T04:11:41.017Z,99.90
2023-04-10T04:14:18.478Z,99.90
2023-04-10T04:16:57.343Z,99.90
2023-04-10T04:19:51.905Z,99.90
2023-04-10T04:22:41.522Z,99.90
2023-04-10T04:25:35.839Z,99.90
2023-04-10T04:28:24.453Z,99.90
2023-04-10T04:31:21.573Z,99.90
2023-04-10T04:34:08.324Z,99.90
2023-04-10T04:36:51.199Z,99.90
2023-04-10T04:39:38.625Z,99.90
2023-04-10T04:42:25.108Z,99.90
2023-04-10T04:45:11.842Z,99.90
2023-04-10T04:48:06.130Z,99.90
2023-04-10T04:50:54.474Z,99.90
2023-04-10T04:53:42.852Z,99.90
2023-04-10T04:56:27.536Z,99.90
2023-04-10T04:59:19.630Z,99.90
2023-04-10T05:01:57.749Z,99.90
2023-04-10T05:04:36.129Z,99.90
2023-04-10T05:07:23.222Z,99.90
2023-04-10T05:09:56.767Z,99.90
2023-04-10T05:12:43.994Z,99.90
2023-04-10T05:15:30.082Z,99.90
2023-04-10T05:18:23.862Z,99.90
2023-04-10T05:21:04.514Z,99.90
2023-04-10T05:24:11.189Z,99.90
2023-04-10T05:26:45.739Z,99.90
2023-04-10T05:29:29.704Z,99.90
2023-04-10T05:32:30.415Z,99.90
2023-04-10T05:35:13.734Z,99.90
2023-04-10T05:37:46.894Z,99.90
2023-04-10T05:40:26.524Z,99.90
2023-04-10T05:43:09.941Z,99.90
2023-04-10T05:46:01.221Z,99.90
2023-04-10T05:48:41.111Z,99.90
2023-04-10T05:51:23.786Z,99.90
2023-04-10T05:54:17.917Z,99.90
2023-04-10T05:57:09.246Z,99.90
2023-04-10T05:59:46.148Z,99.90
2023-04-10T06:02:43.444Z,99.90
2023-04-10T06:05:20.632Z,99.90
2023-04-10T06:07:59.093Z,99.90
2023-04-10T06:10:30.456Z,99.90
2023-04-10T06:13:00.976Z,99.90
2023-04-10T06:15:31.856Z,99.90
2023-04-10T06:18:01.471Z,99.90
2023-04-10T06:20:30.904Z,99.90
2023-04-10T06:23:00.525Z,99.90
2023-04-10T06:25:28.683Z,99.90
2023-04-10T06:28:00.491Z,99.90
2023-04-10T06:30:29.168Z,99.90
2023-04-10T06:32:57.460Z,99.90
2023-04-10T06:35:27.370Z,99.90
2023-04-10T06:37:55.514Z,99.90
2023-04-10T06:40:23.726Z,99.90
2023-04-10T06:42:53.889Z,99.90
2023-04-10T06:45:33.661Z,99.90
2023-04-10T06:48:01.796Z,99.90
2023-04-10T06:50:34.381Z,99.90
2023-04-10T06:53:02.585Z,99.90
2023-04-10T06:55:31.164Z,99.90
2023-04-10T06:57:59.300Z,99.90
2023-04-10T07:00:28.235Z,99.90
2023-04-10T07:02:56.678Z,99.90
2023-04-10T07:05:24.819Z,99.90
2023-04-10T07:07:54.269Z,99.90
2023-04-10T07:10:24.881Z,99.90
2023-04-10T07:12:53.027Z,99.90
2023-04-10T07:15:21.179Z,99.90
2023-04-10T07:17:49.423Z,99.90
2023-04-10T07:20:17.626Z,99.90
2023-04-10T07:22:45.704Z,99.90
2023-04-10T07:25:15.552Z,99.90
2023-04-10T07:27:43.673Z,99.90
2023-04-10T07:30:13.738Z,99.90
2023-04-10T07:32:42.542Z,99.90
2023-04-10T07:35:13.219Z,99.90
2023-04-10T07:37:41.866Z,99.90
2023-04-10T07:40:11.481Z,99.90
2023-04-10T07:42:44.184Z,99.90
2023-04-10T07:45:12.955Z,99.90
2023-04-10T07:47:41.162Z,99.90
2023-04-10T07:50:10.254Z,99.90
2023-04-10T07:52:38.366Z,99.90
2023-04-10T07:55:07.296Z,99.90
2023-04-10T07:57:35.470Z,99.90
2023-04-10T08:00:08.662Z,99.90
2023-04-10T08:02:45.220Z,99.90
2023-04-10T08:05:13.437Z,99.90
2023-04-10T08:07:41.587Z,99.90
2023-04-10T08:10:10.661Z,99.90
2023-04-10T08:12:38.836Z,99.90
2023-04-10T08:15:09.239Z,99.90
2023-04-10T08:17:39.610Z,99.90
2023-04-10T08:20:09.399Z,99.90
2023-04-10T08:22:37.520Z,99.90
2023-04-10T08:25:06.968Z,99.90
2023-04-10T08:27:37.234Z,99.50
2023-04-10T08:30:06.637Z,97.80
2023-04-10T08:32:36.638Z,96.60
2023-04-10T08:35:05.224Z,95.30
2023-04-10T08:37:33.317Z,94.80
2023-04-10T08:40:01.701Z,94.30
2023-04-10T08:42:29.773Z,92.00
2023-04-10T08:45:00.004Z,91.10
2023-04-10T08:47:30.640Z,90.20
2023-04-10T08:50:05.098Z,90.10
2023-04-10T08:52:36.332Z,89.30
2023-04-10T08:55:09.048Z,88.10
2023-04-10T08:57:39.082Z,86.50
2023-04-10T09:02:44.739Z,86.70
2023-04-10T09:05:16.606Z,85.10
2023-04-10T09:07:44.710Z,81.30
2023-04-10T09:10:12.750Z,81.30
2023-04-10T09:12:47.420Z,81.40
2023-04-10T09:15:16.797Z,78.20
2023-04-10T09:17:59.148Z,77.70
2023-04-10T09:20:30.695Z,77.70
2023-04-10T09:22:59.402Z,75.70
2023-04-10T09:25:33.523Z,76.30
2023-04-10T09:28:06.602Z,77.30
2023-04-10T09:30:36.366Z,75.20
2023-04-10T09:33:24.261Z,75.40
2023-04-10T09:35:54.090Z,76.70
2023-04-10T09:38:23.042Z,75.70
2023-04-10T09:40:52.369Z,75.00
2023-04-10T09:43:24.078Z,75.70
2023-04-10T09:45:54.053Z,74.60
2023-04-10T09:48:22.879Z,74.70
2023-04-10T09:50:54.769Z,74.00
2023-04-10T09:53:23.050Z,74.70
2023-04-10T09:55:53.294Z,74.50
2023-04-10T09:58:22.180Z,74.50
2023-04-10T10:00:50.773Z,74.80
2023-04-10T10:03:21.125Z,74.30
2023-04-10T10:05:53.189Z,73.50
2023-04-10T10:08:26.514Z,72.50
2023-04-10T10:10:59.886Z,72.60
2023-04-10T10:13:42.510Z,70.20
2023-04-10T10:16:16.656Z,67.30
2023-04-10T10:18:48.513Z,64.10
2023-04-10T10:21:18.000Z,63.10
2023-04-10T10:23:48.947Z,62.80
2023-04-10T10:26:20.307Z,61.60
2023-04-10T10:28:49.572Z,62.90
2023-04-10T10:31:20.949Z,60.60
2023-04-10T10:33:49.313Z,60.30
2023-04-10T10:36:21.070Z,60.30
2023-04-10T10:39:02.863Z,60.60
2023-04-10T10:41:39.445Z,62.00
2023-04-10T10:44:12.933Z,62.40
2023-04-10T10:46:49.916Z,63.70
2023-04-10T10:49:18.076Z,64.10
2023-04-10T10:51:48.152Z,62.90
2023-04-10T10:54:34.272Z,61.70
2023-04-10T10:57:06.494Z,61.70
2023-04-10T10:59:56.684Z,62.80
2023-04-10T11:02:26.547Z,62.20
2023-04-10T11:04:55.439Z,62.40
2023-04-10T11:07:37.854Z,63.00
2023-04-10T11:10:08.465Z,63.00
2023-04-10T11:13:14.090Z,61.90
2023-04-10T11:15:45.918Z,61.30
2023-04-10T11:18:14.513Z,61.40
2023-04-10T11:21:09.742Z,62.90
2023-04-10T11:23:38.951Z,62.00
2023-04-10T11:26:08.549Z,61.90
2023-04-10T11:28:38.434Z,62.60
2023-04-10T11:31:20.956Z,61.80
2023-04-10T11:33:50.447Z,62.90
2023-04-10T11:36:18.721Z,62.40
2023-04-10T11:38:57.713Z,62.60
2023-04-10T11:41:31.353Z,60.30
2023-04-10T11:44:00.027Z,59.00
2023-04-10T11:46:31.696Z,58.80
2023-04-10T11:49:01.599Z,59.40
2023-04-10T11:51:31.047Z,59.40
2023-04-10T11:54:07.029Z,58.40
2023-04-10T11:56:37.054Z,57.40
2023-04-10T11:59:07.871Z,55.70
2023-04-10T12:01:36.165Z,55.70
2023-04-10T12:04:07.940Z,54.80
2023-04-10T12:06:38.441Z,54.60
2023-04-10T12:09:14.367Z,54.90
2023-04-10T12:11:51.447Z,56.20
2023-04-10T12:14:20.082Z,56.30
2023-04-10T12:16:48.698Z,54.30
2023-04-10T12:19:18.119Z,53.50
2023-04-10T12:21:47.324Z,53.10
2023-04-10T12:24:45.122Z,53.10
2023-04-10T12:27:20.616Z,52.80
2023-04-10T12:29:50.106Z,53.00
2023-04-10T12:32:19.180Z,52.10
2023-04-10T12:34:53.853Z,53.10
2023-04-10T12:37:22.327Z,52.60
2023-04-10T12:39:51.567Z,52.50
2023-04-10T12:42:24.429Z,52.90
2023-04-10T12:44:54.243Z,52.10
2023-04-10T12:47:22.765Z,52.10
2023-04-10T12:50:10.826Z,52.10
2023-04-10T12:52:43.216Z,52.60
2023-04-10T12:55:16.091Z,52.90
2023-04-10T12:57:47.017Z,52.10
2023-04-10T13:00:17.146Z,51.80
2023-04-10T13:02:46.258Z,51.80
2023-04-10T13:05:15.547Z,51.80
2023-04-10T13:07:43.948Z,51.60
2023-04-10T13:10:12.392Z,52.50
2023-04-10T13:12:42.171Z,50.60
2023-04-10T13:15:12.026Z,50.20
2023-04-10T13:17:41.835Z,51.20
2023-04-10T13:20:12.107Z,50.70
2023-04-10T13:22:40.724Z,50.20
2023-04-10T13:25:09.780Z,50.20
2023-04-10T13:27:38.027Z,49.20
2023-04-10T13:30:07.332Z,50.10
2023-04-10T13:32:37.125Z,50.00
2023-04-10T13:35:05.824Z,50.00
2023-04-10T13:37:34.146Z,49.90
2023-04-10T13:40:02.380Z,50.10
2023-04-10T13:42:31.083Z,49.40
2023-04-10T13:44:59.320Z,49.60
2023-04-10T13:47:27.631Z,49.20
2023-04-10T13:50:00.382Z,48.70
2023-04-10T13:52:31.802Z,49.10
2023-04-10T13:55:00.027Z,49.40
2023-04-10T13:57:28.211Z,48.80
2023-04-10T13:59:56.568Z,49.10
2023-04-10T14:02:24.822Z,49.30
2023-04-10T14:04:53.085Z,49.50
2023-04-10T14:07:22.730Z,50.00
2023-04-10T14:09:53.125Z,49.70
2023-04-10T14:12:23.158Z,50.10
2023-04-10T14:14:54.497Z,49.60
2023-04-10T14:17:22.661Z,50.20
2023-04-10T14:19:52.627Z,50.30
2023-04-10T14:22:22.294Z,50.60
2023-04-10T14:24:58.938Z,51.00
2023-04-10T14:27:34.531Z,51.30
2023-04-10T14:30:02.716Z,51.20
2023-04-10T14:32:31.913Z,51.60
2023-04-10T14:35:02.824Z,51.90
2023-04-10T14:37:32.494Z,51.70
2023-04-10T14:40:00.794Z,52.70
2023-04-10T14:42:29.085Z,51.70
2023-04-10T14:44:58.805Z,52.40
2023-04-10T14:47:27.144Z,52.50
2023-04-10T14:49:55.429Z,52.50
2023-04-10T14:52:25.933Z,52.70
2023-04-10T14:54:58.477Z,52.30
2023-04-10T14:57:26.600Z,52.40
2023-04-10T14:59:54.911Z,52.90
2023-04-10T15:02:23.227Z,52.70
2023-04-10T15:04:53.959Z,52.90
2023-04-10T15:07:22.134Z,53.50
2023-04-10T15:09:50.392Z,53.40
2023-04-10T15:12:20.974Z,53.60
2023-04-10T15:14:49.304Z,53.90
2023-04-10T15:17:17.549Z,54.10
2023-04-10T15:19:45.962Z,54.80
2023-04-10T15:22:14.212Z,55.30
2023-04-10T15:24:49.910Z,54.20
2023-04-10T15:27:22.005Z,53.60
2023-04-10T15:29:52.853Z,54.20
2023-04-10T15:32:21.071Z,54.00
2023-04-10T15:34:49.198Z,53.60
2023-04-10T15:37:17.382Z,53.40
2023-04-10T15:39:45.742Z,53.20
2023-04-10T15:42:15.907Z,53.40
2023-04-10T15:44:48.868Z,53.70
2023-04-10T15:47:17.425Z,53.20
2023-04-10T15:49:45.651Z,53.40
2023-04-10T15:52:13.894Z,53.50
2023-04-10T15:54:42.408Z,53.80
2023-04-10T15:57:10.681Z,53.30
2023-04-10T15:59:38.948Z,53.90
2023-04-10T16:02:11.309Z,53.60
2023-04-10T16:04:40.122Z,53.60
2023-04-10T16:07:08.321Z,53.80
2023-04-10T16:09:36.569Z,54.60
2023-04-10T16:12:05.011Z,54.50
2023-04-10T16:14:33.596Z,54.40
2023-04-10T16:17:02.445Z,54.80
2023-04-10T16:19:32.990Z,55.00
2023-04-10T16:22:01.258Z,55.30
2023-04-10T16:24:29.613Z,54.80
2023-04-10T16:26:57.946Z,55.30
2023-04-10T16:29:26.211Z,55.50
2023-04-10T16:31:54.408Z,55.60
2023-04-10T16:34:22.582Z,56.50
2023-04-10T16:36:52.041Z,56.30
2023-04-10T16:39:22.697Z,57.00
2023-04-10T16:41:50.923Z,56.70
2023-04-10T16:44:19.054Z,56.70
2023-04-10T16:46:49.762Z,57.00
2023-04-10T16:49:17.999Z,56.90
2023-04-10T16:51:46.130Z,57.30
2023-04-10T16:54:15.940Z,57.20
2023-04-10T16:56:46.355Z,57.70
2023-04-10T16:59:14.588Z,57.50
2023-04-10T17:01:42.845Z,57.70
2023-04-10T17:04:11.586Z,57.90
2023-04-10T17:06:40.061Z,58.10
2023-04-10T17:09:08.334Z,58.00
2023-04-10T17:11:37.936Z,58.10
2023-04-10T17:14:07.386Z,58.10
2023-04-10T17:16:35.617Z,58.40
2023-04-10T17:19:03.858Z,58.10
2023-04-10T17:21:32.529Z,58.60
2023-04-10T17:24:12.812Z,58.30
2023-04-10T17:26:42.551Z,58.40
2023-04-10T17:29:10.768Z,58.60
2023-04-10T17:31:41.514Z,58.60
2023-04-10T17:34:09.722Z,58.90
2023-04-10T17:36:37.873Z,59.00
2023-04-10T17:39:06.204Z,59.30
2023-04-10T17:41:34.461Z,59.30
2023-04-10T17:44:05.499Z,59.80
2023-04-10T17:46:33.718Z,59.90
2023-04-10T17:49:02.321Z,59.80
2023-04-10T17:51:31.580Z,60.00
2023-04-10T17:53:59.861Z,60.60
2023-04-10T17:56:28.053Z,61.60
2023-04-10T17:58:56.471Z,62.70
2023-04-10T18:01:29.681Z,64.80
2023-04-10T18:03:59.131Z,67.00
2023-04-10T18:06:27.735Z,72.60
2023-04-10T18:08:57.147Z,77.20
2023-04-10T18:11:28.504Z,80.00
2023-04-10T18:13:59.743Z,83.10
2023-04-10T18:16:29.850Z,90.20
2023-04-10T18:18:58.168Z,99.90
2023-04-10T18:21:27.191Z,99.90
2023-04-10T18:23:55.524Z,99.90
2023-04-10T18:26:24.456Z,99.90
2023-04-10T18:28:55.369Z,99.90
2023-04-10T18:31:23.882Z,99.90
2023-04-10T18:34:06.612Z,99.90
2023-04-10T18:36:39.424Z,99.90
2023-04-10T18:39:07.697Z,99.90
2023-04-10T18:41:35.913Z,99.90
2023-04-10T18:44:05.856Z,99.90
2023-04-10T18:46:34.677Z,99.90
2023-04-10T18:49:04.420Z,99.90
2023-04-10T18:51:34.615Z,99.90
2023-04-10T18:54:03.424Z,99.90
2023-04-10T18:56:31.735Z,99.90
2023-04-10T18:59:00.204Z,99.90
2023-04-10T19:01:29.040Z,99.90
2023-04-10T19:03:57.865Z,99.90
2023-04-10T19:06:27.901Z,99.90
2023-04-10T19:08:56.752Z,99.90
2023-04-10T19:11:27.520Z,99.90
2023-04-10T19:13:55.950Z,99.90
2023-04-10T19:16:24.492Z,99.90
2023-04-10T19:18:54.984Z,99.90
2023-04-10T19:21:23.515Z,99.90
2023-04-10T19:23:53.147Z,99.90
2023-04-10T19:26:21.381Z,99.90
2023-04-10T19:28:51.816Z,99.90
2023-04-10T19:31:20.856Z,99.90
2023-04-10T19:33:49.164Z,99.90
2023-04-10T19:36:19.302Z,99.90
2023-04-10T19:38:50.920Z,99.90
2023-04-10T19:41:20.626Z,99.90
2023-04-10T19:43:48.920Z,99.90
2023-04-10T19:46:18.426Z,99.90
2023-04-10T19:48:47.170Z,99.90
2023-04-10T19:51:15.563Z,99.90
2023-04-10T19:54:14.913Z,99.90
2023-04-10T19:56:44.488Z,99.90
2023-04-10T19:59:12.704Z,99.90
2023-04-10T20:01:40.974Z,99.90
2023-04-10T20:04:10.479Z,99.90
2023-04-10T20:06:38.800Z,99.90
2023-04-10T20:09:09.217Z,99.90
2023-04-10T20:11:37.553Z,99.90
2023-04-10T20:14:07.245Z,99.90
2023-04-10T20:16:35.991Z,99.90
2023-04-10T20:19:04.772Z,99.90
2023-04-10T20:21:34.138Z,99.90
2023-04-10T20:24:02.435Z,99.90
2023-04-10T20:26:30.669Z,99.90
2023-04-10T20:28:59.000Z,99.90
2023-04-10T20:31:28.639Z,99.90
2023-04-10T20:33:57.097Z,99.90
2023-04-10T20:36:26.378Z,99.90
2023-04-10T20:38:54.870Z,99.90
2023-04-10T20:41:25.269Z,99.90
2023-04-10T20:43:57.475Z,99.90
2023-04-10T20:46:27.394Z,99.90
2023-04-10T20:48:59.221Z,99.90
2023-04-10T20:51:28.602Z,99.90
2023-04-10T20:53:56.775Z,99.90
2023-04-10T20:56:36.834Z,99.90
2023-04-10T20:59:13.418Z,99.90
2023-04-10T21:01:42.102Z,99.90
2023-04-10T21:04:11.717Z,99.90
2023-04-10T21:06:39.996Z,99.90
2023-04-10T21:09:10.893Z,99.90
2023-04-10T21:11:39.010Z,99.90
2023-04-10T21:14:07.151Z,99.90
2023-04-10T21:16:41.341Z,99.90
2023-04-10T21:19:10.944Z,99.90
2023-04-10T21:21:39.255Z,99.90
2023-04-10T21:24:07.547Z,99.90
2023-04-10T21:26:35.725Z,99.90
2023-04-10T21:29:03.912Z,99.90
2023-04-10T21:31:32.133Z,99.90
2023-04-10T21:34:00.335Z,99.90
2023-04-10T21:36:29.879Z,99.90
2023-04-10T21:38:58.077Z,99.90
2023-04-10T21:41:27.129Z,99.90
2023-04-10T21:43:56.507Z,99.90
2023-04-10T21:46:27.328Z,99.90
2023-04-10T21:48:57.722Z,99.90
2023-04-10T21:51:26.932Z,99.90
2023-04-10T21:53:56.632Z,99.90
2023-04-10T21:56:24.951Z,99.90
2023-04-10T21:58:53.345Z,99.90
2023-04-10T22:01:23.908Z,99.90
2023-04-10T22:03:53.222Z,99.90
2023-04-10T22:06:21.579Z,99.90
2023-04-10T22:08:49.698Z,99.90
2023-04-10T22:11:19.362Z,99.90
2023-04-10T22:13:47.536Z,99.90
2023-04-10T22:16:15.724Z,99.90
2023-04-10T22:18:43.900Z,99.90
2023-04-10T22:21:13.303Z,99.90
2023-04-10T22:23:41.542Z,99.90
2023-04-10T22:26:09.716Z,99.90
2023-04-10T22:28:41.296Z,99.90
2023-04-10T22:31:16.416Z,99.90
2023-04-10T22:33:44.875Z,99.90
2023-04-10T22:36:15.608Z,99.90
2023-04-10T22:38:44.050Z,99.90
2023-04-10T22:41:12.224Z,99.90
2023-04-10T22:43:44.128Z,99.90
2023-04-10T22:46:14.818Z,99.90
2023-04-10T22:48:43.707Z,99.90
2023-04-10T22:51:15.960Z,99.90
2023-04-10T22:53:44.059Z,99.90
2023-04-10T22:56:12.423Z,99.90
2023-04-10T22:58:44.296Z,99.90
2023-04-10T23:01:13.318Z,99.90
2023-04-10T23:03:45.067Z,99.90
2023-04-10T23:06:13.268Z,99.90
2023-04-10T23:08:41.430Z,99.90
2023-04-10T23:11:09.565Z,99.90
2023-04-10T23:13:40.472Z,99.90
2023-04-10T23:16:11.510Z,99.90
2023-04-10T23:18:42.730Z,99.90
2023-04-10T23:21:10.916Z,99.90
2023-04-10T23:23:41.601Z,99.90
2023-04-10T23:26:11.354Z,99.90
2023-04-10T23:28:42.399Z,99.90
2023-04-10T23:31:11.968Z,99.90
2023-04-10T23:33:40.173Z,99.90
2023-04-10T23:36:08.948Z,99.90
2023-04-10T23:38:37.134Z,99.90
2023-04-10T23:41:05.335Z,99.90
2023-04-10T23:43:35.567Z,99.90
2023-04-10T23:46:05.582Z,99.90
2023-04-10T23:48:37.848Z,99.90
2023-04-10T23:51:06.527Z,99.90
2023-04-10T23:53:34.862Z,99.90
2023-04-10T23:56:07.750Z,99.90
2023-04-10T23:58:38.391Z,99.90
